Time,TemperatureF,DewpointF,PressureIn,WindDirection,WindDirectionDegrees,WindSpeedMPH,WindSpeedGustMPH,Humidity,HourlyPrecipIn,Conditions,Clouds,dailyrainin,SoftwareType,DateUTC
2014-01-12 00:11:00,38.0,21.0,-100.00,WSW,253,11.0,19.0,50,-99.99,,,-99.99,,2014-01-12 08:11:00,
2014-01-12 00:22:00,38.0,21.0,-100.00,WSW,253,11.0,19.0,50,-99.99,,,-99.99,,2014-01-12 08:22:00,
2014-01-12 00:42:00,37.0,19.0,-100.00,West,263,4.0,7.0,47,-99.99,,,-99.99,,2014-01-12 08:42:00,
2014-01-12 00:52:00,38.0,15.0,-100.00,WSW,254,9.0,17.0,38,-99.99,,,-99.99,,2014-01-12 08:52:00,
2014-01-12 01:01:00,38.0,15.0,-100.00,WSW,254,9.0,17.0,38,-99.99,,,-99.99,,2014-01-12 09:01:00,
2014-01-12 01:43:00,38.0,16.0,-100.00,WSW,247,12.0,22.0,40,-99.99,,,-99.99,,2014-01-12 09:43:00,
2014-01-12 01:53:00,37.0,14.0,-100.00,WSW,254,7.0,12.0,39,-99.99,,,-99.99,,2014-01-12 09:53:00,
2014-01-12 02:03:00,37.0,14.0,-100.00,WSW,254,7.0,12.0,39,-99.99,,,-99.99,,2014-01-12 10:03:00,
2014-01-12 02:12:00,37.0,14.0,-100.00,WSW,254,7.0,12.0,39,-99.99,,,-99.99,,2014-01-12 10:12:00,
2014-01-12 02:22:00,37.0,14.0,-100.00,WSW,254,7.0,12.0,39,-99.99,,,-99.99,,2014-01-12 10:22:00,
2014-01-12 02:43:00,37.0,10.0,-100.00,SW,224,5.0,14.0,32,-99.99,,,-99.99,,2014-01-12 10:43:00,
2014-01-12 02:52:00,35.0,18.0,-100.00,SSW,195,5.0,7.0,50,-99.99,,,-99.99,,2014-01-12 10:52:00,
2014-01-12 03:02:00,35.0,18.0,-100.00,SSW,195,5.0,7.0,50,-99.99,,,-99.99,,2014-01-12 11:02:00,
2014-01-12 03:12:00,35.0,18.0,-100.00,SSW,195,5.0,7.0,50,-99.99,,,-99.99,,2014-01-12 11:12:00,
2014-01-12 03:22:00,35.0,17.0,-100.00,SSW,202,2.0,4.0,48,-99.99,,,-99.99,,2014-01-12 11:22:00,
2014-01-12 03:42:00,35.0,17.0,-100.00,North,-999,0.0,2.0,48,-99.99,,,-99.99,,2014-01-12 11:42:00,
2014-01-12 04:11:00,35.0,16.0,-100.00,West,280,4.0,7.0,45,-99.99,,,-99.99,,2014-01-12 12:11:00,
2014-01-12 04:21:00,35.0,13.0,-100.00,WNW,287,2.0,5.0,40,-99.99,,,-99.99,,2014-01-12 12:21:00,
2014-01-12 04:52:00,35.0,8.0,-100.00,West,265,7.0,11.0,32,-99.99,,,-99.99,,2014-01-12 12:52:00,
2014-01-12 05:21:00,34.0,8.0,-100.00,WSW,247,6.0,9.0,33,-99.99,,,-99.99,,2014-01-12 13:21:00,
2014-01-12 05:32:00,34.0,8.0,-100.00,WSW,247,6.0,9.0,33,-99.99,,,-99.99,,2014-01-12 13:32:00,
2014-01-12 06:21:00,34.0,9.0,-100.00,WNW,298,2.0,6.0,35,-99.99,,,-99.99,,2014-01-12 14:21:00,
2014-01-12 06:32:00,34.0,9.0,-100.00,WNW,298,2.0,6.0,35,-99.99,,,-99.99,,2014-01-12 14:32:00,
2014-01-12 12:22:00,41.0,17.0,-100.00,North,11,3.0,5.0,38,-99.99,,,-99.99,,2014-01-12 20:22:00,
2014-01-12 12:32:00,41.0,17.0,-100.00,North,11,3.0,5.0,38,-99.99,,,-99.99,,2014-01-12 20:32:00,
2014-01-12 12:42:00,41.0,17.0,-100.00,North,11,3.0,5.0,38,-99.99,,,-99.99,,2014-01-12 20:42:00,
2014-01-12 12:52:00,42.0,18.0,-100.00,East,92,3.0,7.0,37,-99.99,,,-99.99,,2014-01-12 20:52:00,
2014-01-12 13:02:00,42.0,18.0,-100.00,East,92,3.0,7.0,37,-99.99,,,-99.99,,2014-01-12 21:02:00,
2014-01-12 13:22:00,43.0,13.0,-100.00,East,79,3.0,6.0,29,-99.99,,,-99.99,,2014-01-12 21:22:00,
2014-01-12 13:33:00,43.0,13.0,-100.00,East,79,3.0,6.0,29,-99.99,,,-99.99,,2014-01-12 21:33:00,
2014-01-12 13:53:00,44.0,10.0,-100.00,NE,48,3.0,5.0,24,-99.99,,,-99.99,,2014-01-12 21:53:00,
2014-01-12 14:03:00,44.0,10.0,-100.00,NE,48,3.0,5.0,24,-99.99,,,-99.99,,2014-01-12 22:03:00,
2014-01-12 14:23:00,44.0,9.0,-100.00,NNE,30,3.0,5.0,23,-99.99,,,-99.99,,2014-01-12 22:23:00,
2014-01-12 14:33:00,44.0,9.0,-100.00,NNE,30,3.0,5.0,23,-99.99,,,-99.99,,2014-01-12 22:33:00,
2014-01-12 14:42:00,44.0,9.0,-100.00,NNE,30,3.0,5.0,23,-99.99,,,-99.99,,2014-01-12 22:42:00,
2014-01-12 14:53:00,44.0,9.0,-100.00,NNE,30,3.0,5.0,23,-99.99,,,-99.99,,2014-01-12 22:53:00,
2014-01-12 15:21:00,42.0,11.0,-100.00,North,8,5.0,9.0,28,-99.99,,,-99.99,,2014-01-12 23:21:00,
2014-01-12 15:33:00,42.0,11.0,-100.00,North,8,5.0,9.0,28,-99.99,,,-99.99,,2014-01-12 23:33:00,
2014-01-12 16:11:00,41.0,13.0,-100.00,WNW,291,5.0,11.0,32,-99.99,,,-99.99,,2014-01-13 00:11:00,
2014-01-12 16:22:00,40.0,13.0,-100.00,North,360,5.0,16.0,33,-99.99,,,-99.99,,2014-01-13 00:22:00,
2014-01-12 16:32:00,40.0,13.0,-100.00,North,360,5.0,16.0,33,-99.99,,,-99.99,,2014-01-13 00:32:00,
2014-01-12 16:42:00,40.0,13.0,-100.00,North,360,5.0,16.0,33,-99.99,,,-99.99,,2014-01-13 00:42:00,
2014-01-12 17:11:00,39.0,14.0,-100.00,North,-999,0.0,1.0,35,-99.99,,,-99.99,,2014-01-13 01:11:00,
2014-01-12 17:21:00,39.0,14.0,-100.00,North,-999,0.0,1.0,35,-99.99,,,-99.99,,2014-01-13 01:21:00,
2014-01-12 17:32:00,39.0,14.0,-100.00,North,-999,0.0,1.0,35,-99.99,,,-99.99,,2014-01-13 01:32:00,
2014-01-12 17:52:00,39.0,14.0,-100.00,NW,319,3.0,5.0,35,-99.99,,,-99.99,,2014-01-13 01:52:00,
2014-01-12 18:01:00,39.0,14.0,-100.00,NW,319,3.0,5.0,35,-99.99,,,-99.99,,2014-01-13 02:01:00,
2014-01-12 18:21:00,39.0,14.0,-100.00,NW,313,3.0,6.0,35,-99.99,,,-99.99,,2014-01-13 02:21:00,
2014-01-12 18:42:00,39.0,14.0,-100.00,West,270,1.0,5.0,35,-99.99,,,-99.99,,2014-01-13 02:42:00,
2014-01-12 18:52:00,38.0,13.0,-100.00,South,191,3.0,7.0,36,-99.99,,,-99.99,,2014-01-13 02:52:00,
2014-01-12 19:02:00,38.0,13.0,-100.00,South,191,3.0,7.0,36,-99.99,,,-99.99,,2014-01-13 03:02:00,
2014-01-12 19:22:00,37.0,14.0,-100.00,South,184,3.0,11.0,38,-99.99,,,-99.99,,2014-01-13 03:22:00,
2014-01-12 19:43:00,34.0,14.0,-100.00,NW,306,1.0,3.0,44,-99.99,,,-99.99,,2014-01-13 03:43:00,
2014-01-12 19:53:00,35.0,16.0,-100.00,West,277,2.0,3.0,45,-99.99,,,-99.99,,2014-01-13 03:53:00,
2014-01-12 20:03:00,35.0,16.0,-100.00,West,277,2.0,3.0,45,-99.99,,,-99.99,,2014-01-13 04:03:00,
2014-01-12 20:13:00,35.0,16.0,-100.00,West,277,2.0,3.0,45,-99.99,,,-99.99,,2014-01-13 04:13:00,
2014-01-12 20:43:00,37.0,15.0,-100.00,SW,233,2.0,3.0,40,-99.99,,,-99.99,,2014-01-13 04:43:00,
2014-01-12 21:12:00,36.0,16.0,-100.00,SE,140,2.0,4.0,44,-99.99,,,-99.99,,2014-01-13 05:12:00,
2014-01-12 21:22:00,35.0,15.0,-100.00,North,-999,0.0,1.0,44,-99.99,,,-99.99,,2014-01-13 05:22:00,
2014-01-12 21:32:00,35.0,15.0,-100.00,North,-999,0.0,1.0,44,-99.99,,,-99.99,,2014-01-13 05:32:00,
2014-01-12 22:12:00,35.0,16.0,-100.00,South,171,1.0,2.0,46,-99.99,,,-99.99,,2014-01-13 06:12:00,
2014-01-12 22:22:00,34.0,16.0,-100.00,North,-999,0.0,1.0,48,-99.99,,,-99.99,,2014-01-13 06:22:00,
2014-01-12 22:43:00,34.0,16.0,-100.00,SW,217,2.0,3.0,48,-99.99,,,-99.99,,2014-01-13 06:43:00,
2014-01-12 23:12:00,33.0,16.0,-100.00,SSE,157,2.0,3.0,50,-99.99,,,-99.99,,2014-01-13 07:12:00,
2014-01-12 23:22:00,33.0,16.0,-100.00,SW,219,1.0,3.0,49,-99.99,,,-99.99,,2014-01-13 07:22:00,
2014-01-12 23:32:00,33.0,17.0,-100.00,North,-999,0.0,1.0,51,-99.99,,,-99.99,,2014-01-13 07:32:00,
2014-01-12 23:42:00,35.0,17.0,-100.00,North,-999,0.0,2.0,47,-99.99,,,-99.99,,2014-01-13 07:42:00,